Time;durP1;ratioP1;P1;durP2;ratioP2;P2;SDS_P1;SDS_P2;PMS_P1;PMS_P2;Temp;Humidity;BMP_temperature;BMP_pressure;BME280_temperature;BME280_humidity;BME280_pressure;Samples;Min_cycle;Max_cycle;Signal;HPM_P1;HPM_P2
2022/11/18 00:01:26;;;;;;;2.67;0.30;;;20.90;99.90;;;;;;5047470;28;20545;-79
2022/11/18 00:03:58;;;;;;;0.60;0.30;;;20.90;99.90;;;;;;5046062;28;20710;-78
2022/11/18 00:06:34;;;;;;;0.50;0.30;;;20.90;99.90;;;;;;5049199;28;20232;-78
2022/11/18 00:09:05;;;;;;;0.47;0.28;;;20.80;99.90;;;;;;5045409;28;20198;-78
2022/11/18 00:14:26;;;;;;;2.53;1.98;;;21.50;99.90;;;;;;5048650;28;20208;-78
2022/11/18 00:16:59;;;;;;;1.23;0.50;;;21.90;99.90;;;;;;5045750;28;20267;-77
2022/11/18 00:19:32;;;;;;;1.90;0.77;;;21.70;99.90;;;;;;5046292;28;20693;-79
2022/11/18 00:22:08;;;;;;;0.95;0.43;;;21.80;99.90;;;;;;5045640;28;20239;-76
2022/11/18 00:24:39;;;;;;;1.42;0.50;;;22.20;99.90;;;;;;5052799;28;20236;-77
2022/11/18 00:27:10;;;;;;;1.83;0.68;;;22.50;99.90;;;;;;5048637;28;20206;-78
2022/11/18 00:29:41;;;;;;;1.58;0.40;;;22.50;99.90;;;;;;5049083;28;20574;-77
2022/11/18 00:32:12;;;;;;;1.83;0.40;;;22.00;99.90;;;;;;5049032;28;20600;-77
2022/11/18 00:34:43;;;;;;;2.40;0.40;;;22.00;99.90;;;;;;5044582;28;20204;-77
2022/11/18 00:37:17;;;;;;;1.77;0.30;;;22.10;99.90;;;;;;5042964;28;20233;-76
2022/11/18 00:39:48;;;;;;;1.90;0.40;;;22.00;99.90;;;;;;5042612;28;20224;-75
2022/11/18 00:45:05;;;;;;;1.50;0.20;;;22.00;99.90;;;;;;5045540;28;20201;-77
2022/11/18 00:47:36;;;;;;;1.70;0.43;;;22.20;99.90;;;;;;5050197;28;20201;-76
2022/11/18 00:50:07;;;;;;;2.55;0.50;;;22.30;99.90;;;;;;5050183;28;20201;-76
2022/11/18 00:52:41;;;;;;;2.72;0.50;;;22.20;99.90;;;;;;5039557;28;20201;-76
2022/11/18 00:55:13;;;;;;;2.47;0.45;;;22.30;99.90;;;;;;5056210;28;20705;-76
2022/11/18 00:57:44;;;;;;;2.28;0.40;;;22.50;99.90;;;;;;5051713;28;20696;-76
2022/11/18 01:00:15;;;;;;;3.38;0.50;;;22.50;99.90;;;;;;5046022;28;20244;-77
2022/11/18 01:02:46;;;;;;;1.67;0.60;;;21.90;99.90;;;;;;5057123;28;20252;-74
2022/11/18 01:05:18;;;;;;;3.45;0.50;;;22.00;99.90;;;;;;5053407;28;20259;-75
2022/11/18 01:07:52;;;;;;;4.60;0.70;;;21.70;99.90;;;;;;5055737;28;20665;-76
2022/11/18 01:10:23;;;;;;;5.30;0.68;;;21.40;99.90;;;;;;5052656;28;20204;-77
2022/11/18 01:15:42;;;;;;;2.45;0.50;;;21.40;99.90;;;;;;5044045;28;20259;-76
2022/11/18 01:18:13;;;;;;;4.43;0.60;;;21.70;99.90;;;;;;5049558;28;20205;-76
2022/11/18 01:20:44;;;;;;;2.33;0.60;;;21.70;99.90;;;;;;5042840;28;20649;-75
2022/11/18 01:23:18;;;;;;;0.80;0.32;;;21.80;99.90;;;;;;5041366;28;20205;-76
2022/11/18 01:25:50;;;;;;;2.47;0.40;;;22.00;99.90;;;;;;5043911;28;20661;-74
2022/11/18 01:28:22;;;;;;;2.20;0.55;;;22.10;99.90;;;;;;5050668;28;20200;-76
2022/11/18 01:30:53;;;;;;;1.48;0.30;;;21.90;99.90;;;;;;5053713;28;20563;-75
2022/11/18 01:33:23;;;;;;;2.80;0.52;;;21.80;99.90;;;;;;5052360;28;20209;-76
2022/11/18 01:35:54;;;;;;;1.20;0.40;;;22.00;99.90;;;;;;5052689;28;20232;-78
2022/11/18 01:38:29;;;;;;;0.63;0.35;;;21.90;99.90;;;;;;5044984;28;20281;-76
2022/11/18 01:41:00;;;;;;;2.47;0.35;;;21.80;99.90;;;;;;5050396;28;20263;-75
2022/11/18 01:43:52;;;;;;;1.33;0.40;;;22.00;99.90;;;;;;5050934;28;20277;-78
2022/11/18 01:46:24;;;;;;;2.97;0.40;;;21.90;99.90;;;;;;5051958;28;20197;-76
2022/11/18 01:48:58;;;;;;;2.30;0.32;;;21.90;99.90;;;;;;5053272;28;20212;-76
2022/11/18 01:51:33;;;;;;;1.13;0.30;;;21.90;99.90;;;;;;5046829;28;20197;-78
2022/11/18 01:54:09;;;;;;;2.08;0.40;;;22.00;99.90;;;;;;5055575;28;20197;-78
2022/11/18 01:56:42;;;;;;;1.58;0.38;;;22.10;99.90;;;;;;5054526;28;20663;-76
2022/11/18 01:59:20;;;;;;;3.85;0.40;;;21.90;99.90;;;;;;5047745;28;20235;-77
2022/11/18 02:01:51;;;;;;;1.48;0.40;;;21.70;99.90;;;;;;5046395;28;20628;-77
2022/11/18 02:04:22;;;;;;;2.42;0.40;;;21.40;99.90;;;;;;5052705;28;20276;-76
2022/11/18 02:06:53;;;;;;;2.63;0.30;;;21.30;99.90;;;;;;5045765;28;20276;-78
2022/11/18 02:09:25;;;;;;;1.33;0.50;;;21.20;99.90;;;;;;5052368;28;20595;-76
2022/11/18 02:11:56;;;;;;;1.73;0.52;;;21.20;99.90;;;;;;5052016;28;20680;-75
2022/11/18 02:14:30;;;;;;;0.73;0.25;;;21.10;99.90;;;;;;5053705;28;20208;-77
2022/11/18 02:17:10;;;;;;;2.58;0.52;;;21.00;99.90;;;;;;5042954;28;20202;-75
2022/11/18 02:20:33;;;;;;;1.65;0.30;;;21.00;99.90;;;;;;5048603;28;20236;-79
2022/11/18 02:23:46;;;;;;;2.05;0.50;;;20.90;99.90;;;;;;5041627;28;20202;-81
2022/11/18 02:26:53;;;;;;;1.73;0.40;;;21.00;99.90;;;;;;5053439;28;20208;-80
2022/11/18 02:29:29;;;;;;;3.60;0.40;;;21.00;99.90;;;;;;5040586;28;20209;-74
2022/11/18 02:32:03;;;;;;;3.75;0.40;;;21.00;99.90;;;;;;5049160;28;20198;-81
2022/11/18 02:34:45;;;;;;;1.52;0.43;;;21.10;99.90;;;;;;5047588;28;20218;-79
2022/11/18 02:37:24;;;;;;;2.35;0.32;;;21.00;99.90;;;;;;4959866;28;2556149;-78
2022/11/18 02:40:01;;;;;;;3.42;0.50;;;20.70;99.90;;;;;;5051096;28;20225;-76
2022/11/18 02:42:34;;;;;;;1.75;0.50;;;20.40;99.90;;;;;;5062257;28;20213;-77
2022/11/18 02:45:11;;;;;;;6.70;0.90;;;20.20;99.90;;;;;;5042698;28;20208;-77
2022/11/18 02:47:44;;;;;;;2.28;0.50;;;20.20;99.90;;;;;;5045892;28;20199;-77
2022/11/18 02:50:19;;;;;;;1.90;0.45;;;20.20;99.90;;;;;;5050887;28;20285;-78
2022/11/18 02:52:54;;;;;;;2.92;0.50;;;20.30;99.90;;;;;;5046275;28;20190;-78
2022/11/18 02:55:29;;;;;;;1.27;0.40;;;20.00;99.90;;;;;;5047095;28;20200;-76
2022/11/18 02:58:01;;;;;;;3.85;0.60;;;19.80;99.90;;;;;;5053452;28;20193;-78
2022/11/18 03:00:35;;;;;;;1.70;0.30;;;19.70;99.90;;;;;;5052858;28;20770;-82
2022/11/18 03:03:27;;;;;;;1.90;0.50;;;19.80;99.90;;;;;;5052704;28;20186;-77
2022/11/18 03:06:07;;;;;;;1.30;0.52;;;20.00;99.90;;;;;;5046034;28;20200;-77
2022/11/18 03:08:42;;;;;;;3.53;0.50;;;20.10;99.90;;;;;;5048126;28;20209;-77
2022/11/18 03:11:19;;;;;;;2.75;0.45;;;20.30;99.90;;;;;;5049109;28;20197;-78
2022/11/18 03:14:06;;;;;;;2.40;0.35;;;20.40;99.90;;;;;;5050828;28;20197;-79
2022/11/18 03:16:44;;;;;;;1.52;0.50;;;20.40;99.90;;;;;;5040914;28;20196;-76
2022/11/18 03:19:25;;;;;;;1.90;0.50;;;20.50;99.90;;;;;;5057493;28;20687;-78
2022/11/18 03:22:07;;;;;;;2.97;0.40;;;20.50;99.90;;;;;;5047200;28;20193;-78
2022/11/18 03:24:44;;;;;;;2.90;0.50;;;20.50;99.90;;;;;;5049529;28;20219;-76
2022/11/18 03:27:21;;;;;;;0.93;0.25;;;20.60;99.90;;;;;;5038307;28;20207;-77
2022/11/18 03:29:57;;;;;;;3.55;0.35;;;20.70;99.90;;;;;;5051910;28;20728;-76
2022/11/18 03:32:33;;;;;;;1.08;0.30;;;20.60;99.90;;;;;;5050126;28;20209;-77
2022/11/18 03:35:07;;;;;;;0.63;0.25;;;20.50;99.90;;;;;;5049504;28;20205;-76
2022/11/18 03:37:40;;;;;;;2.85;0.30;;;20.40;99.90;;;;;;5046218;28;20197;-77
2022/11/18 03:40:19;;;;;;;1.10;0.30;;;20.30;99.90;;;;;;5052409;28;20245;-75
2022/11/18 03:42:54;;;;;;;2.85;0.40;;;20.30;99.90;;;;;;5053487;28;20205;-75
2022/11/18 03:45:31;;;;;;;0.85;0.10;;;20.30;99.90;;;;;;5051539;28;20207;-75
2022/11/18 03:48:12;;;;;;;1.85;0.50;;;20.30;99.90;;;;;;5035171;28;20280;-77
2022/11/18 03:50:48;;;;;;;1.58;0.30;;;20.20;99.90;;;;;;5044105;28;20207;-77
2022/11/18 03:53:22;;;;;;;1.80;0.50;;;20.30;99.90;;;;;;5058201;28;20564;-80
2022/11/18 03:55:57;;;;;;;0.88;0.40;;;20.40;99.90;;;;;;5049206;28;20198;-78
2022/11/18 03:58:32;;;;;;;3.38;0.40;;;20.30;99.90;;;;;;5046569;28;20197;-77
2022/11/18 04:01:11;;;;;;;2.30;0.47;;;20.30;99.90;;;;;;5044039;28;20587;-78
2022/11/18 04:03:46;;;;;;;2.45;0.52;;;20.30;99.90;;;;;;5049703;28;20660;-76
2022/11/18 04:06:26;;;;;;;0.93;0.40;;;20.10;99.90;;;;;;5042263;28;20659;-77
2022/11/18 04:09:02;;;;;;;1.33;0.47;;;20.00;99.90;;;;;;5051867;28;20201;-76
2022/11/18 04:14:23;;;;;;;2.95;0.40;;;20.00;99.90;;;;;;5043617;28;20685;-77
2022/11/18 04:16:55;;;;;;;1.80;0.30;;;19.90;99.90;;;;;;5051634;28;20285;-77
2022/11/18 04:19:29;;;;;;;4.65;0.45;;;19.90;99.90;;;;;;5055609;28;20198;-75
2022/11/18 04:22:01;;;;;;;3.53;0.28;;;19.90;99.90;;;;;;5046651;28;20194;-76
2022/11/18 04:24:32;;;;;;;1.67;0.30;;;20.00;99.90;;;;;;5049007;28;20236;-78
2022/11/18 04:27:05;;;;;;;1.10;0.30;;;20.00;99.90;;;;;;5040558;28;20251;-76
2022/11/18 04:29:37;;;;;;;0.50;0.30;;;19.90;99.90;;;;;;5046128;28;20202;-79
2022/11/18 04:32:08;;;;;;;1.40;0.30;;;20.10;99.90;;;;;;5034716;28;20212;-78
2022/11/18 04:34:42;;;;;;;0.63;0.30;;;20.10;99.90;;;;;;5048579;28;20201;-76
2022/11/18 04:37:13;;;;;;;2.00;0.30;;;20.10;99.90;;;;;;5045194;28;20229;-75
2022/11/18 04:39:44;;;;;;;3.03;0.40;;;20.00;99.90;;;;;;5051632;28;20216;-78
2022/11/18 04:42:16;;;;;;;2.42;0.50;;;20.00;99.90;;;;;;5052451;28;20657;-75
2022/11/18 04:44:47;;;;;;;2.88;0.40;;;19.90;99.90;;;;;;5052147;28;20216;-75
2022/11/18 04:47:19;;;;;;;2.65;0.50;;;19.90;99.90;;;;;;5051476;28;20205;-78
2022/11/18 04:49:56;;;;;;;1.42;0.32;;;19.90;99.90;;;;;;5044692;28;20201;-78
2022/11/18 04:52:28;;;;;;;2.50;0.50;;;19.90;99.90;;;;;;5052364;28;20193;-77
2022/11/18 04:54:59;;;;;;;1.15;0.40;;;19.80;99.90;;;;;;5049151;28;20203;-77
2022/11/18 04:57:30;;;;;;;2.25;0.40;;;19.80;99.90;;;;;;5039868;28;20202;-77
2022/11/18 05:00:01;;;;;;;3.35;0.30;;;19.80;99.90;;;;;;5051775;28;20209;-74
2022/11/18 05:02:32;;;;;;;2.00;0.40;;;19.80;99.90;;;;;;5050995;28;20202;-78
2022/11/18 05:05:05;;;;;;;2.92;0.55;;;19.80;99.90;;;;;;5052937;28;20276;-79
2022/11/18 05:07:36;;;;;;;2.60;0.30;;;19.80;99.90;;;;;;5056588;28;20197;-78
2022/11/18 05:10:09;;;;;;;1.88;0.50;;;19.80;99.90;;;;;;5061390;28;20199;-76
2022/11/18 05:12:51;;;;;;;1.65;0.30;;;19.70;99.90;;;;;;5061766;28;20221;-79
2022/11/18 05:15:24;;;;;;;2.95;0.40;;;19.70;99.90;;;;;;5053658;28;20209;-75
2022/11/18 05:17:55;;;;;;;0.73;0.30;;;19.70;99.90;;;;;;5055913;28;20193;-77
2022/11/18 05:20:31;;;;;;;1.08;0.20;;;19.60;99.90;;;;;;5055184;28;20590;-73
2022/11/18 05:23:02;;;;;;;0.50;0.30;;;19.70;99.90;;;;;;5045342;28;20194;-76
2022/11/18 05:25:33;;;;;;;1.95;0.30;;;19.70;99.90;;;;;;5050665;28;20196;-78
2022/11/18 05:28:04;;;;;;;0.85;0.30;;;19.70;99.90;;;;;;5050545;28;20193;-75
2022/11/18 05:30:35;;;;;;;1.02;0.30;;;19.70;99.90;;;;;;5051108;28;20552;-78
2022/11/18 05:33:06;;;;;;;3.17;0.40;;;19.70;99.90;;;;;;5041607;28;20194;-75
2022/11/18 05:35:39;;;;;;;2.63;0.45;;;19.80;99.90;;;;;;5049677;28;20235;-75
2022/11/18 05:38:10;;;;;;;2.28;0.32;;;19.80;99.90;;;;;;5054892;28;20656;-76
2022/11/18 05:40:44;;;;;;;3.30;0.60;;;19.80;99.90;;;;;;5049603;28;20209;-76
2022/11/18 05:43:13;;;;;;;0.80;0.30;;;19.80;99.90;;;;;;5058795;28;20695;-75
2022/11/18 05:45:46;;;;;;;2.47;0.60;;;19.80;99.90;;;;;;5047650;28;20252;-76
2022/11/18 05:48:18;;;;;;;2.45;0.50;;;19.80;99.90;;;;;;5052477;28;20190;-76
2022/11/18 05:50:53;;;;;;;3.08;0.47;;;19.80;99.90;;;;;;5047048;28;20747;-77
2022/11/18 05:53:26;;;;;;;2.03;0.30;;;19.80;99.90;;;;;;5046663;28;20659;-76
2022/11/18 05:56:02;;;;;;;3.08;0.40;;;19.90;99.90;;;;;;5055495;28;20201;-77
2022/11/18 05:58:33;;;;;;;2.88;0.32;;;20.00;99.90;;;;;;5052491;28;20202;-78
2022/11/18 06:01:07;;;;;;;3.13;0.47;;;19.80;99.90;;;;;;5052199;28;20213;-78
2022/11/18 06:03:41;;;;;;;2.05;0.47;;;19.90;99.90;;;;;;5054141;28;20201;-79
2022/11/18 06:06:19;;;;;;;2.70;0.30;;;19.90;99.90;;;;;;5052837;28;20228;-78
2022/11/18 06:08:52;;;;;;;1.27;0.30;;;19.90;99.90;;;;;;5052109;28;22064;-78
2022/11/18 06:11:26;;;;;;;0.95;0.30;;;20.00;99.90;;;;;;5049007;28;20634;-77
2022/11/18 06:14:00;;;;;;;2.97;0.30;;;20.00;99.90;;;;;;5051798;28;20659;-78
2022/11/18 06:16:34;;;;;;;1.25;0.35;;;19.90;99.90;;;;;;5058267;28;20205;-77
2022/11/18 06:19:06;;;;;;;1.98;0.40;;;19.90;99.90;;;;;;5046269;28;20198;-79
2022/11/18 06:21:41;;;;;;;1.13;0.40;;;19.90;99.90;;;;;;5053065;28;20225;-78
2022/11/18 06:24:14;;;;;;;4.13;0.40;;;19.90;99.90;;;;;;5048930;28;20284;-79
2022/11/18 06:26:45;;;;;;;2.67;0.50;;;19.80;99.90;;;;;;5050684;28;20207;-78
2022/11/18 06:29:19;;;;;;;4.22;0.57;;;19.70;99.90;;;;;;5051150;28;20239;-79
2022/11/18 06:31:50;;;;;;;2.92;0.50;;;19.70;99.90;;;;;;5057631;28;20637;-78
2022/11/18 06:34:21;;;;;;;3.90;0.40;;;19.60;99.90;;;;;;5050488;28;20196;-77
2022/11/18 06:36:55;;;;;;;3.20;0.50;;;19.60;99.90;;;;;;5055549;28;20316;-77
2022/11/18 06:39:26;;;;;;;3.17;0.40;;;19.50;99.90;;;;;;5049413;28;20272;-77
2022/11/18 06:41:58;;;;;;;3.72;0.40;;;19.50;99.90;;;;;;5051924;28;20209;-75
2022/11/18 06:44:27;;;;;;;1.10;0.40;;;19.40;99.90;;;;;;5049150;28;20194;-77
2022/11/18 06:46:58;;;;;;;1.17;0.38;;;19.40;99.90;;;;;;5054197;28;20198;-77
2022/11/18 06:49:30;;;;;;;2.55;0.50;;;19.30;99.90;;;;;;5053823;28;20186;-77
2022/11/18 06:52:04;;;;;;;2.50;0.50;;;19.40;99.90;;;;;;5059621;28;20197;-77
2022/11/18 06:54:35;;;;;;;2.33;0.32;;;19.30;99.90;;;;;;5058065;28;20276;-77
2022/11/18 06:57:06;;;;;;;3.13;0.50;;;19.20;99.90;;;;;;5061816;28;20189;-77
2022/11/18 06:59:37;;;;;;;3.38;0.52;;;19.20;99.90;;;;;;5060188;28;20193;-75
2022/11/18 07:02:09;;;;;;;1.52;0.50;;;19.20;99.90;;;;;;5057370;28;20213;-77
2022/11/18 07:04:40;;;;;;;3.13;0.50;;;19.10;99.90;;;;;;5055948;28;20197;-76
2022/11/18 07:07:15;;;;;;;0.80;0.30;;;19.10;99.90;;;;;;5054587;28;20542;-77
2022/11/18 07:09:46;;;;;;;2.92;0.50;;;19.00;99.90;;;;;;5058436;28;20203;-77
2022/11/18 07:12:17;;;;;;;3.45;0.50;;;19.00;99.90;;;;;;5056740;28;20722;-77
2022/11/18 07:14:49;;;;;;;0.55;0.47;;;18.90;99.90;;;;;;5064427;28;20235;-78
2022/11/18 07:17:20;;;;;;;3.05;0.68;;;18.90;99.90;;;;;;5050516;28;20198;-77
2022/11/18 07:19:51;;;;;;;5.22;0.68;;;18.90;99.90;;;;;;5042439;28;20666;-77
2022/11/18 07:22:26;;;;;;;1.95;0.70;;;18.90;99.90;;;;;;5052562;28;20239;-77
2022/11/18 07:24:57;;;;;;;2.72;0.40;;;18.90;99.90;;;;;;5066604;28;20640;-78
2022/11/18 07:27:28;;;;;;;5.13;0.57;;;18.90;99.90;;;;;;5066616;28;20641;-75
2022/11/18 07:30:00;;;;;;;3.90;0.52;;;18.80;99.90;;;;;;5053824;28;20655;-76
2022/11/18 07:32:31;;;;;;;3.70;0.50;;;18.70;99.90;;;;;;5058550;28;20222;-77
2022/11/18 07:35:02;;;;;;;2.70;0.57;;;18.70;99.90;;;;;;5053272;28;20563;-77
2022/11/18 07:37:38;;;;;;;3.00;0.55;;;18.70;99.90;;;;;;5045655;28;20308;-77
2022/11/18 07:40:11;;;;;;;2.42;0.45;;;18.70;99.90;;;;;;5045366;28;20185;-77
2022/11/18 07:42:43;;;;;;;2.85;0.50;;;18.70;99.90;;;;;;5044799;28;20215;-78
2022/11/18 07:45:14;;;;;;;2.42;0.57;;;18.80;99.90;;;;;;5049902;28;20201;-77
2022/11/18 07:47:46;;;;;;;1.85;0.50;;;18.80;99.90;;;;;;5052620;28;20185;-77
2022/11/18 07:50:17;;;;;;;2.35;0.75;;;18.80;99.90;;;;;;5052957;28;20603;-77
2022/11/18 07:52:51;;;;;;;1.02;0.40;;;18.80;99.90;;;;;;5048716;28;20290;-78
2022/11/18 07:55:22;;;;;;;5.28;0.80;;;18.70;99.90;;;;;;5042631;28;20243;-77
2022/11/18 07:57:53;;;;;;;2.97;0.80;;;18.70;99.90;;;;;;5053330;28;20192;-78
2022/11/18 08:00:25;;;;;;;3.90;0.77;;;18.70;99.90;;;;;;5044782;28;20614;-76
2022/11/18 08:02:56;;;;;;;3.55;0.82;;;18.70;99.90;;;;;;5053029;28;20197;-77
2022/11/18 08:05:27;;;;;;;4.03;0.80;;;18.60;99.90;;;;;;5044459;28;20230;-77
2022/11/18 08:08:01;;;;;;;2.78;0.60;;;18.60;99.90;;;;;;5053053;28;20192;-77
2022/11/18 08:10:32;;;;;;;3.53;0.80;;;18.50;99.90;;;;;;5052607;28;20189;-77
2022/11/18 08:13:03;;;;;;;2.15;0.70;;;18.40;99.90;;;;;;5055350;28;20300;-77
2022/11/18 08:15:35;;;;;;;3.35;0.50;;;18.30;99.90;;;;;;5050988;28;20200;-77
2022/11/18 08:18:07;;;;;;;5.72;0.70;;;18.20;99.90;;;;;;5053583;28;20186;-77
2022/11/18 08:20:39;;;;;;;3.35;0.50;;;18.10;99.90;;;;;;5044560;28;20228;-77
2022/11/18 08:23:13;;;;;;;1.38;0.50;;;18.10;99.90;;;;;;5043293;28;20182;-77
2022/11/18 08:25:45;;;;;;;2.03;0.60;;;18.00;99.90;;;;;;5052477;28;20207;-77
2022/11/18 08:28:17;;;;;;;7.18;0.90;;;17.90;99.90;;;;;;5051541;28;20186;-77
2022/11/18 08:30:48;;;;;;;3.10;0.77;;;17.90;99.90;;;;;;5058923;28;20640;-77
2022/11/18 08:33:20;;;;;;;4.43;0.90;;;17.80;99.90;;;;;;5054411;28;20272;-77
2022/11/18 08:35:51;;;;;;;2.78;0.88;;;17.80;99.90;;;;;;5045189;28;20295;-77
2022/11/18 08:38:25;;;;;;;3.08;0.50;;;17.80;99.90;;;;;;5051266;28;20296;-77
2022/11/18 08:40:57;;;;;;;4.03;0.60;;;17.70;99.90;;;;;;5044032;28;20558;-77
2022/11/18 08:43:27;;;;;;;2.88;0.60;;;17.70;99.90;;;;;;5051724;28;20284;-77
2022/11/18 08:45:59;;;;;;;2.72;0.90;;;17.60;99.90;;;;;;5058367;28;20222;-77
2022/11/18 08:48:30;;;;;;;3.22;0.80;;;17.60;99.90;;;;;;5048456;28;20284;-77
2022/11/18 08:51:02;;;;;;;3.05;0.63;;;17.50;99.90;;;;;;5052428;28;20272;-77
2022/11/18 08:53:36;;;;;;;3.88;0.80;;;17.50;99.90;;;;;;5052262;28;20197;-77
2022/11/18 08:56:08;;;;;;;2.80;0.75;;;17.50;99.90;;;;;;5044880;28;20663;-77
2022/11/18 08:58:39;;;;;;;2.47;0.52;;;17.50;99.90;;;;;;5043019;28;20554;-77
2022/11/18 09:01:11;;;;;;;1.15;0.50;;;17.40;99.90;;;;;;5047044;28;20211;-77
2022/11/18 09:03:42;;;;;;;2.30;0.77;;;17.40;99.90;;;;;;5040100;28;20194;-77
2022/11/18 09:06:16;;;;;;;4.03;0.98;;;17.40;99.90;;;;;;5045198;28;20200;-77
2022/11/18 09:08:50;;;;;;;3.60;0.80;;;17.30;99.90;;;;;;5049413;28;20239;-77
2022/11/18 09:11:22;;;;;;;1.88;0.80;;;17.40;99.90;;;;;;5053141;28;20684;-77
2022/11/18 09:13:56;;;;;;;7.43;0.75;;;17.30;99.90;;;;;;5058357;28;20185;-77
2022/11/18 09:16:28;;;;;;;5.82;0.70;;;17.30;99.90;;;;;;5060564;28;20202;-77
2022/11/18 09:19:00;;;;;;;6.68;1.00;;;17.30;99.90;;;;;;5050919;28;20232;-77
2022/11/18 09:21:31;;;;;;;4.75;0.90;;;17.30;99.90;;;;;;5054442;28;20220;-77
2022/11/18 09:24:07;;;;;;;4.35;0.82;;;17.30;99.90;;;;;;5052088;28;20228;-77
2022/11/18 09:26:38;;;;;;;2.50;0.70;;;17.30;99.90;;;;;;5045676;28;20190;-77
2022/11/18 09:29:10;;;;;;;2.15;0.73;;;17.20;99.90;;;;;;5051448;28;20273;-77
2022/11/18 09:31:42;;;;;;;2.38;0.80;;;17.20;99.90;;;;;;5052503;28;20186;-77
2022/11/18 09:34:13;;;;;;;2.40;0.70;;;17.20;99.90;;;;;;5043817;28;20217;-78
2022/11/18 09:36:50;;;;;;;3.90;0.75;;;17.10;99.90;;;;;;5051739;28;20265;-78
2022/11/18 09:39:24;;;;;;;1.98;0.70;;;17.20;99.90;;;;;;5058359;28;20181;-77
2022/11/18 09:42:04;;;;;;;3.80;0.80;;;17.10;99.90;;;;;;5049344;28;20667;-78
2022/11/18 09:44:59;;;;;;;4.88;0.80;;;17.10;99.90;;;;;;5055095;28;20276;-78
2022/11/18 09:47:32;;;;;;;2.80;0.90;;;17.10;99.90;;;;;;5047683;28;20189;-78
2022/11/18 09:50:05;;;;;;;4.68;0.95;;;17.00;99.90;;;;;;5055433;28;20273;-78
2022/11/18 09:52:42;;;;;;;2.63;0.75;;;17.00;99.90;;;;;;5060632;28;20193;-78
2022/11/18 09:55:20;;;;;;;2.33;0.73;;;17.00;99.90;;;;;;5058704;28;20219;-78
2022/11/18 09:57:53;;;;;;;2.22;0.98;;;17.00;99.90;;;;;;5054433;28;20185;-77
2022/11/18 10:00:27;;;;;;;2.38;0.57;;;17.00;99.90;;;;;;5047414;28;20231;-77
2022/11/18 10:03:03;;;;;;;1.50;0.60;;;16.90;99.90;;;;;;5046939;28;20248;-77
2022/11/18 10:05:40;;;;;;;2.38;0.57;;;17.00;99.90;;;;;;5055321;28;20255;-77
2022/11/18 10:08:26;;;;;;;3.63;0.82;;;16.90;99.90;;;;;;5056862;28;20186;-77
2022/11/18 10:11:07;;;;;;;1.83;0.52;;;16.90;99.90;;;;;;5064741;28;20193;-77
2022/11/18 10:13:53;;;;;;;2.33;0.50;;;16.90;99.90;;;;;;5057092;28;20204;-77
2022/11/18 10:16:38;;;;;;;3.58;0.70;;;16.90;99.90;;;;;;5067325;28;20200;-77
2022/11/18 10:19:20;;;;;;;1.60;0.57;;;16.90;99.90;;;;;;5054407;28;20193;-77
2022/11/18 10:22:00;;;;;;;1.98;0.80;;;16.90;99.90;;;;;;5064067;28;20206;-77
2022/11/18 10:24:39;;;;;;;5.50;0.90;;;16.90;99.90;;;;;;5063246;28;20186;-77
2022/11/18 10:27:17;;;;;;;3.80;0.65;;;16.80;99.90;;;;;;5057090;28;20240;-77
2022/11/18 10:29:54;;;;;;;3.63;1.05;;;16.80;99.90;;;;;;5052487;28;20197;-77
2022/11/18 10:32:25;;;;;;;6.38;0.80;;;16.80;99.90;;;;;;5055037;28;20527;-77
2022/11/18 10:34:59;;;;;;;4.32;0.82;;;16.80;99.90;;;;;;5062312;28;20235;-77
2022/11/18 10:37:32;;;;;;;2.42;0.80;;;16.80;99.90;;;;;;5075180;28;20704;-77
2022/11/18 10:40:05;;;;;;;3.47;0.75;;;16.70;99.90;;;;;;5061589;28;20272;-77
2022/11/18 10:42:44;;;;;;;4.57;1.00;;;16.70;99.90;;;;;;5054310;28;20209;-77
2022/11/18 10:45:26;;;;;;;1.80;0.85;;;16.70;99.90;;;;;;5055676;28;20193;-77
2022/11/18 10:48:09;;;;;;;2.28;0.80;;;16.70;99.90;;;;;;5048375;28;20641;-77
2022/11/18 10:50:41;;;;;;;2.45;0.85;;;16.70;99.90;;;;;;5054382;28;20213;-77
2022/11/18 10:53:32;;;;;;;2.63;0.70;;;16.60;99.90;;;;;;5056916;28;20308;-77
2022/11/18 10:56:04;;;;;;;1.95;0.80;;;16.60;99.90;;;;;;5060153;28;20182;-77
2022/11/18 10:58:43;;;;;;;5.35;1.02;;;16.60;99.90;;;;;;5052157;28;20218;-77
2022/11/18 11:01:23;;;;;;;2.30;0.80;;;16.60;99.90;;;;;;5050869;28;20221;-77
2022/11/18 11:04:01;;;;;;;2.15;0.68;;;16.60;99.90;;;;;;5054994;28;20622;-77
2022/11/18 11:06:40;;;;;;;2.42;0.70;;;16.50;99.90;;;;;;5056483;28;20307;-77
2022/11/18 11:09:18;;;;;;;2.33;0.80;;;16.50;99.90;;;;;;5057781;28;20228;-77
2022/11/18 11:12:02;;;;;;;1.88;0.50;;;16.50;99.90;;;;;;5059582;28;20283;-77
2022/11/18 11:14:44;;;;;;;2.53;0.80;;;16.50;99.90;;;;;;5060041;28;20189;-77
2022/11/18 11:17:17;;;;;;;1.98;0.73;;;16.50;99.90;;;;;;5058294;28;20216;-77
2022/11/18 11:19:54;;;;;;;2.80;0.73;;;16.40;99.90;;;;;;5057594;28;20200;-77
2022/11/18 11:22:26;;;;;;;3.90;0.88;;;16.50;99.90;;;;;;5062167;28;20209;-77
2022/11/18 11:24:58;;;;;;;3.35;0.70;;;16.40;99.90;;;;;;5050949;28;20281;-77
2022/11/18 11:27:47;;;;;;;2.97;0.70;;;16.40;99.90;;;;;;5043713;28;20196;-77
2022/11/18 11:30:25;;;;;;;4.85;0.70;;;16.40;99.90;;;;;;5050208;28;20190;-77
2022/11/18 11:33:22;;;;;;;1.92;0.68;;;16.40;99.90;;;;;;5046776;28;20197;-77
2022/11/18 11:36:10;;;;;;;1.30;0.60;;;16.40;99.90;;;;;;5048807;28;20245;-77
2022/11/18 11:38:55;;;;;;;3.13;0.60;;;16.30;99.90;;;;;;5043148;28;20284;-77
2022/11/18 11:41:28;;;;;;;1.65;0.60;;;16.30;99.90;;;;;;5053559;28;20200;-77
2022/11/18 11:44:21;;;;;;;2.40;0.73;;;16.30;99.90;;;;;;5053302;28;20273;-77
2022/11/18 11:49:58;;;;;;;2.38;0.80;;;16.20;99.90;;;;;;5049568;28;20319;-77
2022/11/18 11:52:39;;;;;;;5.38;0.98;;;16.20;99.90;;;;;;5047068;28;20666;-78
2022/11/18 11:55:21;;;;;;;2.90;0.60;;;16.20;99.90;;;;;;5049190;28;20255;-77
2022/11/18 11:58:09;;;;;;;5.40;0.98;;;16.20;99.90;;;;;;5047324;28;20194;-78
2022/11/18 12:00:46;;;;;;;3.40;1.92;;;16.20;99.90;;;;;;5044961;28;20300;-78
2022/11/18 12:03:47;;;;;;;5.57;2.60;;;16.20;99.90;;;;;;5036044;28;20833;-78
2022/11/18 12:06:19;;;;;;;4.30;2.65;;;16.10;99.90;;;;;;5042552;28;20201;-77
2022/11/18 12:09:07;;;;;;;6.03;2.70;;;16.10;99.90;;;;;;5049751;28;20225;-77
2022/11/18 12:11:45;;;;;;;4.05;2.35;;;16.10;99.90;;;;;;5050410;28;20589;-77
2022/11/18 12:14:37;;;;;;;4.05;2.10;;;16.10;99.90;;;;;;5051617;28;20198;-78
2022/11/18 12:17:18;;;;;;;6.22;1.55;;;16.00;99.90;;;;;;5053460;28;20288;-77
2022/11/18 12:19:52;;;;;;;6.18;1.30;;;16.00;99.90;;;;;;5050908;28;20203;-78
2022/11/18 12:22:23;;;;;;;2.58;1.10;;;16.00;99.90;;;;;;5051091;28;20214;-77
2022/11/18 12:24:55;;;;;;;2.33;0.82;;;16.00;99.90;;;;;;5057562;28;20228;-78
2022/11/18 12:28:00;;;;;;;2.97;1.00;;;16.00;99.90;;;;;;5051139;28;20196;-77
2022/11/18 12:30:32;;;;;;;3.40;0.90;;;15.90;99.90;;;;;;5041608;28;20236;-78
2022/11/18 12:33:03;;;;;;;2.50;1.08;;;15.90;99.90;;;;;;5051489;28;20284;-77
2022/11/18 12:35:38;;;;;;;3.80;1.10;;;15.90;99.90;;;;;;5052023;28;20662;-76
2022/11/18 12:38:28;;;;;;;2.70;1.10;;;15.90;99.90;;;;;;5047434;28;20203;-76
2022/11/18 12:43:45;;;;;;;4.07;1.02;;;15.90;99.90;;;;;;5049352;28;20319;-76
2022/11/18 12:44:06;;;;;;;3.78;1.02;;;15.90;99.90;;;;;;5048759;28;20213;-76
2022/11/18 12:46:57;;;;;;;4.32;1.10;;;15.90;99.90;;;;;;5054476;28;20189;-76
2022/11/18 12:50:06;;;;;;;2.83;1.02;;;15.90;99.90;;;;;;5059285;28;20193;-77
2022/11/18 12:52:54;;;;;;;3.85;1.20;;;15.90;99.90;;;;;;5044321;28;20205;-77
2022/11/18 12:55:32;;;;;;;3.20;1.00;;;15.80;99.90;;;;;;5048637;28;20359;-77
2022/11/18 12:58:03;;;;;;;3.70;1.00;;;15.80;99.90;;;;;;5045982;28;20181;-76
2022/11/18 13:03:27;;;;;;;3.53;1.23;;;15.80;99.90;;;;;;5043288;28;20228;-76
2022/11/18 13:06:08;;;;;;;4.47;1.00;;;15.80;99.90;;;;;;5054904;28;20190;-77
2022/11/18 13:08:43;;;;;;;3.05;1.20;;;15.70;99.90;;;;;;5048569;28;20201;-77
2022/11/18 13:19:40;;;;;;;4.05;1.27;;;15.70;99.90;;;;;;5041908;28;20197;-76
2022/11/18 13:25:28;;;;;;;3.63;1.13;;;15.80;99.90;;;;;;5045979;28;20201;-76
2022/11/18 13:28:06;;;;;;;4.18;1.58;;;15.70;99.90;;;;;;5065106;28;20212;-76
2022/11/18 13:30:39;;;;;;;4.43;1.45;;;15.70;99.90;;;;;;5046858;28;20194;-76
2022/11/18 13:33:14;;;;;;;5.13;1.45;;;15.70;99.90;;;;;;5053701;28;20282;-76
2022/11/18 13:35:47;;;;;;;3.92;1.40;;;15.70;99.90;;;;;;5054596;28;20247;-76
2022/11/18 13:38:26;;;;;;;5.03;1.52;;;15.70;99.90;;;;;;5051413;28;20240;-76
2022/11/18 13:41:13;;;;;;;3.80;1.60;;;15.70;99.90;;;;;;5053676;28;20189;-76
2022/11/18 13:43:45;;;;;;;3.10;1.33;;;15.70;99.90;;;;;;5050557;28;20222;-76
2022/11/18 13:46:21;;;;;;;7.95;1.90;;;15.70;99.90;;;;;;5053028;28;20235;-76
2022/11/18 13:48:59;;;;;;;4.40;1.63;;;15.70;99.90;;;;;;5052493;28;20196;-76
2022/11/18 13:51:31;;;;;;;4.95;1.50;;;15.70;99.90;;;;;;5051993;28;20284;-76
2022/11/18 13:54:02;;;;;;;4.22;1.63;;;15.60;99.90;;;;;;5052949;28;20204;-76
2022/11/18 13:56:36;;;;;;;3.47;1.27;;;15.60;99.90;;;;;;5051799;28;20679;-76
2022/11/18 13:59:08;;;;;;;2.20;1.23;;;15.60;99.90;;;;;;5046209;28;20201;-76